sensor_id;sensor_type;location;lat;lon;timestamp;pressure;altitude;pressure_sealevel;temperature;humidity
45523;BME280;31254;51.680;5.394;2023-04-06T00:02:09;101866.63;;;3.36;63.00
45523;BME280;31254;51.680;5.394;2023-04-06T00:04:38;101851.69;;;3.28;62.15
45523;BME280;31254;51.680;5.394;2023-04-06T00:07:05;101877.19;;;3.40;62.95
45523;BME280;31254;51.680;5.394;2023-04-06T00:09:32;101827.41;;;3.11;62.79
45523;BME280;31254;51.680;5.394;2023-04-06T00:12:02;101870.31;;;3.33;63.16
45523;BME280;31254;51.680;5.394;2023-04-06T00:14:29;101860.81;;;3.26;63.25
45523;BME280;31254;51.680;5.394;2023-04-06T00:16:55;101845.25;;;3.14;62.58
45523;BME280;31254;51.680;5.394;2023-04-06T00:19:22;101868.00;;;3.25;62.89
45523;BME280;31254;51.680;5.394;2023-04-06T00:21:49;101853.91;;;3.20;63.70
45523;BME280;31254;51.680;5.394;2023-04-06T00:24:18;101840.91;;;3.11;63.48
45523;BME280;31254;51.680;5.394;2023-04-06T00:26:46;101853.03;;;3.20;62.99
45523;BME280;31254;51.680;5.394;2023-04-06T00:29:12;101827.81;;;3.03;63.17
45523;BME280;31254;51.680;5.394;2023-04-06T00:31:39;101844.59;;;3.08;63.82
45523;BME280;31254;51.680;5.394;2023-04-06T00:34:09;101848.66;;;3.17;63.96
45523;BME280;31254;51.680;5.394;2023-04-06T00:36:39;101830.50;;;3.03;63.67
45523;BME280;31254;51.680;5.394;2023-04-06T00:39:05;101822.47;;;3.02;63.48
45523;BME280;31254;51.680;5.394;2023-04-06T00:41:33;101811.94;;;2.97;63.39
45523;BME280;31254;51.680;5.394;2023-04-06T00:44:02;101835.66;;;3.08;64.33
45523;BME280;31254;51.680;5.394;2023-04-06T00:46:32;101813.84;;;2.95;63.84
45523;BME280;31254;51.680;5.394;2023-04-06T00:49:01;101823.34;;;3.02;63.61
45523;BME280;31254;51.680;5.394;2023-04-06T00:51:28;101832.00;;;3.09;63.69
45523;BME280;31254;51.680;5.394;2023-04-06T00:53:55;101820.66;;;3.02;63.54
45523;BME280;31254;51.680;5.394;2023-04-06T00:56:24;101827.50;;;3.09;63.85
45523;BME280;31254;51.680;5.394;2023-04-06T00:58:55;101814.16;;;3.06;63.84
45523;BME280;31254;51.680;5.394;2023-04-06T01:01:23;101769.75;;;2.79;63.33
45523;BME280;31254;51.680;5.394;2023-04-06T01:03:53;101812.19;;;3.10;62.98
45523;BME280;31254;51.680;5.394;2023-04-06T01:06:23;101805.09;;;3.07;62.82
45523;BME280;31254;51.680;5.394;2023-04-06T01:08:50;101785.38;;;3.07;62.66
45523;BME280;31254;51.680;5.394;2023-04-06T01:11:22;101805.03;;;3.26;62.51
45523;BME280;31254;51.680;5.394;2023-04-06T01:13:48;101775.13;;;3.14;62.93
45523;BME280;31254;51.680;5.394;2023-04-06T01:16:17;101719.16;;;2.84;62.19
45523;BME280;31254;51.680;5.394;2023-04-06T01:18:44;101796.47;;;3.36;62.49
45523;BME280;31254;51.680;5.394;2023-04-06T01:21:15;101807.75;;;3.44;61.87
45523;BME280;31254;51.680;5.394;2023-04-06T01:23:46;101796.72;;;3.48;61.91
45523;BME280;31254;51.680;5.394;2023-04-06T01:26:13;101800.13;;;3.52;62.06
45523;BME280;31254;51.680;5.394;2023-04-06T01:28:40;101779.56;;;3.50;62.06
45523;BME280;31254;51.680;5.394;2023-04-06T01:31:08;101788.91;;;3.60;61.53
45523;BME280;31254;51.680;5.394;2023-04-06T01:33:37;101790.47;;;3.64;61.30
45523;BME280;31254;51.680;5.394;2023-04-06T01:36:05;101759.47;;;3.55;61.11
45523;BME280;31254;51.680;5.394;2023-04-06T01:38:32;101782.84;;;3.72;61.22
45523;BME280;31254;51.680;5.394;2023-04-06T01:40:59;101784.34;;;3.78;60.80
45523;BME280;31254;51.680;5.394;2023-04-06T01:43:29;101775.19;;;3.80;60.86
45523;BME280;31254;51.680;5.394;2023-04-06T01:45:56;101775.03;;;3.83;60.41
45523;BME280;31254;51.680;5.394;2023-04-06T01:48:23;101744.28;;;3.70;61.08
45523;BME280;31254;51.680;5.394;2023-04-06T01:50:50;101768.59;;;3.86;61.31
45523;BME280;31254;51.680;5.394;2023-04-06T01:53:16;101767.31;;;3.93;61.14
45523;BME280;31254;51.680;5.394;2023-04-06T01:55:43;101747.00;;;3.86;60.63
45523;BME280;31254;51.680;5.394;2023-04-06T01:58:13;101763.41;;;3.99;60.63
45523;BME280;31254;51.680;5.394;2023-04-06T02:00:40;101762.34;;;4.01;60.90
45523;BME280;31254;51.680;5.394;2023-04-06T02:03:09;101742.06;;;3.94;61.46
45523;BME280;31254;51.680;5.394;2023-04-06T02:05:36;101760.28;;;4.07;61.62
45523;BME280;31254;51.680;5.394;2023-04-06T02:08:05;101751.13;;;4.09;61.29
45523;BME280;31254;51.680;5.394;2023-04-06T02:10:32;101752.78;;;4.12;61.08
45523;BME280;31254;51.680;5.394;2023-04-06T02:12:59;101744.69;;;4.12;60.83
45523;BME280;31254;51.680;5.394;2023-04-06T02:15:27;101739.38;;;4.10;60.95
45523;BME280;31254;51.680;5.394;2023-04-06T02:17:54;101748.78;;;4.19;61.13
45523;BME280;31254;51.680;5.394;2023-04-06T02:20:21;101740.59;;;4.20;60.95
45523;BME280;31254;51.680;5.394;2023-04-06T02:22:47;101709.06;;;4.05;60.56
45523;BME280;31254;51.680;5.394;2023-04-06T02:25:17;101698.25;;;4.05;61.30
45523;BME280;31254;51.680;5.394;2023-04-06T02:27:48;101726.91;;;4.24;61.11
45523;BME280;31254;51.680;5.394;2023-04-06T02:30:15;101705.91;;;4.13;60.60
45523;BME280;31254;51.680;5.394;2023-04-06T02:32:42;101709.25;;;4.18;60.86
45523;BME280;31254;51.680;5.394;2023-04-06T02:35:09;101722.28;;;4.26;60.87
45523;BME280;31254;51.680;5.394;2023-04-06T02:37:36;101700.16;;;4.19;60.56
45523;BME280;31254;51.680;5.394;2023-04-06T02:40:03;101721.16;;;4.30;60.73
45523;BME280;31254;51.680;5.394;2023-04-06T02:42:30;101706.97;;;4.26;61.15
45523;BME280;31254;51.680;5.394;2023-04-06T02:44:57;101722.81;;;4.32;61.08
45523;BME280;31254;51.680;5.394;2023-04-06T02:47:23;101691.78;;;4.24;61.22
45523;BME280;31254;51.680;5.394;2023-04-06T02:49:55;101711.81;;;4.35;60.81
45523;BME280;31254;51.680;5.394;2023-04-06T02:52:22;101680.22;;;4.21;61.02
45523;BME280;31254;51.680;5.394;2023-04-06T02:54:49;101695.78;;;4.32;60.98
45523;BME280;31254;51.680;5.394;2023-04-06T02:57:19;101684.28;;;4.29;61.23
45523;BME280;31254;51.680;5.394;2023-04-06T02:59:46;101670.00;;;4.27;60.83
45523;BME280;31254;51.680;5.394;2023-04-06T03:02:13;101698.91;;;4.40;60.92
45523;BME280;31254;51.680;5.394;2023-04-06T03:04:40;101699.13;;;4.37;61.46
45523;BME280;31254;51.680;5.394;2023-04-06T03:07:09;101688.91;;;4.43;61.50
45523;BME280;31254;51.680;5.394;2023-04-06T03:09:38;101683.09;;;4.34;61.26
45523;BME280;31254;51.680;5.394;2023-04-06T03:12:05;101689.00;;;4.41;61.04
45523;BME280;31254;51.680;5.394;2023-04-06T03:14:35;101690.63;;;4.44;61.60
45523;BME280;31254;51.680;5.394;2023-04-06T03:17:07;101667.13;;;4.30;61.50
45523;BME280;31254;51.680;5.394;2023-04-06T03:19:34;101662.50;;;4.32;61.71
45523;BME280;31254;51.680;5.394;2023-04-06T03:22:01;101676.44;;;4.40;61.77
45523;BME280;31254;51.680;5.394;2023-04-06T03:24:28;101653.72;;;4.28;61.61
45523;BME280;31254;51.680;5.394;2023-04-06T03:26:55;101670.25;;;4.38;61.86
45523;BME280;31254;51.680;5.394;2023-04-06T03:29:22;101670.00;;;4.43;62.07
45523;BME280;31254;51.680;5.394;2023-04-06T03:31:49;101685.75;;;4.50;61.93
45523;BME280;31254;51.680;5.394;2023-04-06T03:34:17;101680.34;;;4.50;61.57
45523;BME280;31254;51.680;5.394;2023-04-06T03:36:43;101660.13;;;4.42;61.99
45523;BME280;31254;51.680;5.394;2023-04-06T03:39:10;101643.78;;;4.29;62.52
45523;BME280;31254;51.680;5.394;2023-04-06T03:41:37;101658.59;;;4.37;62.58
45523;BME280;31254;51.680;5.394;2023-04-06T03:44:05;101671.72;;;4.44;61.92
45523;BME280;31254;51.680;5.394;2023-04-06T03:46:32;101665.53;;;4.42;62.39
45523;BME280;31254;51.680;5.394;2023-04-06T03:48:59;101668.31;;;4.40;62.53
45523;BME280;31254;51.680;5.394;2023-04-06T03:51:27;101668.06;;;4.45;62.51
45523;BME280;31254;51.680;5.394;2023-04-06T03:53:54;101651.69;;;4.32;62.59
45523;BME280;31254;51.680;5.394;2023-04-06T03:56:21;101653.72;;;4.28;62.92
45523;BME280;31254;51.680;5.394;2023-04-06T03:58:48;101654.66;;;4.27;63.05
45523;BME280;31254;51.680;5.394;2023-04-06T04:01:18;101628.38;;;4.15;63.18
45523;BME280;31254;51.680;5.394;2023-04-06T04:03:47;101649.94;;;4.31;62.39
45523;BME280;31254;51.680;5.394;2023-04-06T04:06:17;101618.78;;;4.09;62.32
45523;BME280;31254;51.680;5.394;2023-04-06T04:08:46;101655.25;;;4.32;62.46
45523;BME280;31254;51.680;5.394;2023-04-06T04:11:13;101667.38;;;4.41;62.60
45523;BME280;31254;51.680;5.394;2023-04-06T04:13:42;101658.59;;;4.37;62.70
45523;BME280;31254;51.680;5.394;2023-04-06T04:16:09;101663.69;;;4.42;62.98
45523;BME280;31254;51.680;5.394;2023-04-06T04:18:38;101647.38;;;4.29;62.82
45523;BME280;31254;51.680;5.394;2023-04-06T04:21:05;101660.91;;;4.44;62.73
45523;BME280;31254;51.680;5.394;2023-04-06T04:23:32;101670.00;;;4.43;63.40
45523;BME280;31254;51.680;5.394;2023-04-06T04:26:02;101614.81;;;4.16;62.94
45523;BME280;31254;51.680;5.394;2023-04-06T04:28:29;101661.22;;;4.39;63.11
45523;BME280;31254;51.680;5.394;2023-04-06T04:30:58;101666.50;;;4.40;63.69
45523;BME280;31254;51.680;5.394;2023-04-06T04:33:24;101658.75;;;4.34;63.41
45523;BME280;31254;51.680;5.394;2023-04-06T04:35:51;101665.72;;;4.38;63.29
45523;BME280;31254;51.680;5.394;2023-04-06T04:38:18;101662.25;;;4.36;63.30
45523;BME280;31254;51.680;5.394;2023-04-06T04:40:46;101634.22;;;4.23;63.51
45523;BME280;31254;51.680;5.394;2023-04-06T04:43:13;101653.63;;;4.30;63.01
45523;BME280;31254;51.680;5.394;2023-04-06T04:45:39;101648.41;;;4.27;64.18
45523;BME280;31254;51.680;5.394;2023-04-06T04:48:06;101661.38;;;4.36;63.92
45523;BME280;31254;51.680;5.394;2023-04-06T04:50:35;101652.66;;;4.31;63.34
45523;BME280;31254;51.680;5.394;2023-04-06T04:53:02;101654.91;;;4.38;63.18
45523;BME280;31254;51.680;5.394;2023-04-06T04:55:31;101632.19;;;4.27;63.24
45523;BME280;31254;51.680;5.394;2023-04-06T04:57:58;101640.63;;;4.36;63.40
45523;BME280;31254;51.680;5.394;2023-04-06T05:00:31;101635.13;;;4.38;63.38
45523;BME280;31254;51.680;5.394;2023-04-06T05:02:58;101641.03;;;4.45;63.27
45523;BME280;31254;51.680;5.394;2023-04-06T05:05:25;101635.38;;;4.49;63.03
45523;BME280;31254;51.680;5.394;2023-04-06T05:07:52;101658.09;;;4.61;63.40
45523;BME280;31254;51.680;5.394;2023-04-06T05:10:21;101605.78;;;4.32;63.53
45523;BME280;31254;51.680;5.394;2023-04-06T05:12:48;101643.78;;;4.59;62.95
45523;BME280;31254;51.680;5.394;2023-04-06T05:15:15;101641.94;;;4.60;63.16
45523;BME280;31254;51.680;5.394;2023-04-06T05:17:44;101641.19;;;4.57;63.32
45523;BME280;31254;51.680;5.394;2023-04-06T05:20:11;101653.56;;;4.76;63.58
45523;BME280;31254;51.680;5.394;2023-04-06T05:22:38;101656.00;;;4.81;63.29
45523;BME280;31254;51.680;5.394;2023-04-06T05:25:08;101645.09;;;4.82;62.95
45523;BME280;31254;51.680;5.394;2023-04-06T05:27:34;101651.19;;;4.86;63.39
45523;BME280;31254;51.680;5.394;2023-04-06T05:30:02;101642.03;;;4.88;62.98
45523;BME280;31254;51.680;5.394;2023-04-06T05:32:28;101634.00;;;4.87;62.39
45523;BME280;31254;51.680;5.394;2023-04-06T05:34:58;101645.63;;;5.03;63.09
45523;BME280;31254;51.680;5.394;2023-04-06T05:37:25;101623.41;;;4.98;62.46
45523;BME280;31254;51.680;5.394;2023-04-06T05:39:52;101637.91;;;5.11;62.43
45523;BME280;31254;51.680;5.394;2023-04-06T05:42:22;101637.53;;;5.18;62.34
45523;BME280;31254;51.680;5.394;2023-04-06T05:44:55;101618.00;;;5.12;62.33
45523;BME280;31254;51.680;5.394;2023-04-06T05:47:22;101642.38;;;5.27;62.45
45523;BME280;31254;51.680;5.394;2023-04-06T05:49:49;101634.72;;;5.34;61.94
45523;BME280;31254;51.680;5.394;2023-04-06T05:52:21;101636.06;;;5.41;61.88
45523;BME280;31254;51.680;5.394;2023-04-06T05:54:48;101645.66;;;5.46;61.70
45523;BME280;31254;51.680;5.394;2023-04-06T05:57:15;101613.38;;;5.43;61.51
45523;BME280;31254;51.680;5.394;2023-04-06T05:59:45;101637.59;;;5.74;61.39
45523;BME280;31254;51.680;5.394;2023-04-06T06:02:12;101629.78;;;5.69;61.28
45523;BME280;31254;51.680;5.394;2023-04-06T06:04:39;101626.97;;;5.71;61.52
45523;BME280;31254;51.680;5.394;2023-04-06T06:07:06;101642.03;;;5.75;61.50
45523;BME280;31254;51.680;5.394;2023-04-06T06:09:33;101634.81;;;5.75;61.27
45523;BME280;31254;51.680;5.394;2023-04-06T06:12:00;101648.53;;;5.72;61.27
45523;BME280;31254;51.680;5.394;2023-04-06T06:14:27;101632.38;;;5.71;61.39
45523;BME280;31254;51.680;5.394;2023-04-06T06:16:56;101639.22;;;5.76;61.42
45523;BME280;31254;51.680;5.394;2023-04-06T06:19:23;101647.41;;;5.89;61.40
45523;BME280;31254;51.680;5.394;2023-04-06T06:21:50;101641.03;;;5.90;61.32
45523;BME280;31254;51.680;5.394;2023-04-06T06:24:17;101650.22;;;6.02;61.04
45523;BME280;31254;51.680;5.394;2023-04-06T06:26:46;101635.06;;;5.99;61.08
45523;BME280;31254;51.680;5.394;2023-04-06T06:29:15;101645.97;;;6.12;61.54
45523;BME280;31254;51.680;5.394;2023-04-06T06:31:42;101627.00;;;6.12;61.42
45523;BME280;31254;51.680;5.394;2023-04-06T06:34:12;101630.94;;;6.21;61.17
45523;BME280;31254;51.680;5.394;2023-04-06T06:36:43;101638.34;;;6.32;60.99
45523;BME280;31254;51.680;5.394;2023-04-06T06:39:13;101645.06;;;6.39;60.75
45523;BME280;31254;51.680;5.394;2023-04-06T06:41:43;101648.44;;;6.43;60.72
45523;BME280;31254;51.680;5.394;2023-04-06T06:44:10;101644.38;;;6.50;60.65
45523;BME280;31254;51.680;5.394;2023-04-06T06:46:39;101635.03;;;6.54;60.64
45523;BME280;31254;51.680;5.394;2023-04-06T06:49:08;101635.78;;;6.56;60.68
45523;BME280;31254;51.680;5.394;2023-04-06T06:51:36;101640.91;;;6.61;60.78
45523;BME280;31254;51.680;5.394;2023-04-06T06:54:05;101640.69;;;6.64;60.91
45523;BME280;31254;51.680;5.394;2023-04-06T06:56:33;101608.44;;;6.46;60.82
45523;BME280;31254;51.680;5.394;2023-04-06T06:58:59;101628.22;;;6.61;60.62
45523;BME280;31254;51.680;5.394;2023-04-06T07:01:27;101646.66;;;6.69;60.81
45523;BME280;31254;51.680;5.394;2023-04-06T07:03:54;101639.31;;;6.71;60.97
45523;BME280;31254;51.680;5.394;2023-04-06T07:06:21;101602.59;;;6.52;60.83
45523;BME280;31254;51.680;5.394;2023-04-06T07:08:48;101629.13;;;6.74;60.83
45523;BME280;31254;51.680;5.394;2023-04-06T07:11:14;101588.09;;;6.53;60.80
45523;BME280;31254;51.680;5.394;2023-04-06T07:13:42;101617.63;;;6.71;60.67
45523;BME280;31254;51.680;5.394;2023-04-06T07:16:11;101590.78;;;6.53;60.89
45523;BME280;31254;51.680;5.394;2023-04-06T07:18:38;101623.38;;;6.79;60.72
45523;BME280;31254;51.680;5.394;2023-04-06T07:21:05;101624.66;;;6.86;60.65
45523;BME280;31254;51.680;5.394;2023-04-06T07:23:31;101586.03;;;6.70;60.92
45523;BME280;31254;51.680;5.394;2023-04-06T07:26:00;101603.50;;;6.91;60.46
45523;BME280;31254;51.680;5.394;2023-04-06T07:28:27;101601.59;;;6.93;60.48
45523;BME280;31254;51.680;5.394;2023-04-06T07:30:54;101614.91;;;7.09;60.33
45523;BME280;31254;51.680;5.394;2023-04-06T07:33:21;101620.44;;;7.21;60.21
45523;BME280;31254;51.680;5.394;2023-04-06T07:35:48;101607.00;;;7.19;60.05
45523;BME280;31254;51.680;5.394;2023-04-06T07:38:16;101616.66;;;7.36;60.03
45523;BME280;31254;51.680;5.394;2023-04-06T07:40:43;101616.22;;;7.42;59.87
45523;BME280;31254;51.680;5.394;2023-04-06T07:43:10;101612.94;;;7.50;59.78
45523;BME280;31254;51.680;5.394;2023-04-06T07:45:36;101607.16;;;7.55;59.84
45523;BME280;31254;51.680;5.394;2023-04-06T07:48:05;101613.66;;;7.65;59.69
45523;BME280;31254;51.680;5.394;2023-04-06T07:50:32;101606.91;;;7.71;59.50
45523;BME280;31254;51.680;5.394;2023-04-06T07:52:59;101609.28;;;7.75;59.47
45523;BME280;31254;51.680;5.394;2023-04-06T07:55:26;101586.81;;;7.73;59.29
45523;BME280;31254;51.680;5.394;2023-04-06T07:57:53;101601.31;;;7.85;59.03
45523;BME280;31254;51.680;5.394;2023-04-06T08:00:20;101603.03;;;7.99;58.85
45523;BME280;31254;51.680;5.394;2023-04-06T08:02:47;101609.38;;;8.11;58.99
45523;BME280;31254;51.680;5.394;2023-04-06T08:05:14;101592.44;;;8.07;58.70
45523;BME280;31254;51.680;5.394;2023-04-06T08:07:41;101602.16;;;8.22;58.42
45523;BME280;31254;51.680;5.394;2023-04-06T08:10:11;101617.53;;;8.35;58.31
45523;BME280;31254;51.680;5.394;2023-04-06T08:12:38;101614.47;;;8.39;58.17
45523;BME280;31254;51.680;5.394;2023-04-06T08:15:08;101603.09;;;8.34;58.42
45523;BME280;31254;51.680;5.394;2023-04-06T08:17:35;101576.47;;;8.27;58.23
45523;BME280;31254;51.680;5.394;2023-04-06T08:20:02;101617.78;;;8.56;58.47
45523;BME280;31254;51.680;5.394;2023-04-06T08:22:30;101608.53;;;8.58;58.31
45523;BME280;31254;51.680;5.394;2023-04-06T08:24:56;101615.94;;;8.68;58.06
45523;BME280;31254;51.680;5.394;2023-04-06T08:27:23;101574.84;;;8.48;58.01
45523;BME280;31254;51.680;5.394;2023-04-06T08:29:50;101619.44;;;8.81;57.63
45523;BME280;31254;51.680;5.394;2023-04-06T08:32:17;101581.31;;;8.58;57.54
45523;BME280;31254;51.680;5.394;2023-04-06T08:34:46;101615.25;;;8.77;57.61
45523;BME280;31254;51.680;5.394;2023-04-06T08:37:13;101623.78;;;8.84;57.50
45523;BME280;31254;51.680;5.394;2023-04-06T08:39:40;101618.72;;;8.90;57.67
45523;BME280;31254;51.680;5.394;2023-04-06T08:42:14;101616.13;;;8.89;57.35
45523;BME280;31254;51.680;5.394;2023-04-06T08:44:43;101627.41;;;9.07;57.16
45523;BME280;31254;51.680;5.394;2023-04-06T08:47:10;101624.09;;;9.14;57.19
45523;BME280;31254;51.680;5.394;2023-04-06T08:49:37;101610.84;;;9.21;56.87
45523;BME280;31254;51.680;5.394;2023-04-06T08:52:09;101625.09;;;9.36;56.77
45523;BME280;31254;51.680;5.394;2023-04-06T08:54:38;101626.22;;;9.45;57.06
45523;BME280;31254;51.680;5.394;2023-04-06T08:57:05;101619.94;;;9.56;57.00
45523;BME280;31254;51.680;5.394;2023-04-06T08:59:34;101614.72;;;9.52;56.85
45523;BME280;31254;51.680;5.394;2023-04-06T09:02:03;101621.16;;;9.63;56.49
45523;BME280;31254;51.680;5.394;2023-04-06T09:04:32;101627.31;;;9.76;56.40
45523;BME280;31254;51.680;5.394;2023-04-06T09:07:00;101622.22;;;9.83;56.97
45523;BME280;31254;51.680;5.394;2023-04-06T09:09:27;101624.56;;;9.87;56.56
45523;BME280;31254;51.680;5.394;2023-04-06T09:11:54;101628.78;;;9.92;56.83
45523;BME280;31254;51.680;5.394;2023-04-06T09:14:38;101593.75;;;9.76;56.58
45523;BME280;31254;51.680;5.394;2023-04-06T09:17:05;101618.94;;;10.12;56.80
45523;BME280;31254;51.680;5.394;2023-04-06T09:19:32;101624.25;;;10.24;56.65
45523;BME280;31254;51.680;5.394;2023-04-06T09:22:06;101613.34;;;10.24;56.58
45523;BME280;31254;51.680;5.394;2023-04-06T09:24:49;101608.72;;;10.36;56.58
45523;BME280;31254;51.680;5.394;2023-04-06T09:27:36;101614.22;;;10.57;56.61
45523;BME280;31254;51.680;5.394;2023-04-06T09:32:30;101616.25;;;10.76;56.68
45523;BME280;31254;51.680;5.394;2023-04-06T09:35:09;101612.72;;;10.86;56.69
45523;BME280;31254;51.680;5.394;2023-04-06T09:37:36;101601.66;;;10.87;56.87
45523;BME280;31254;51.680;5.394;2023-04-06T09:40:05;101616.97;;;11.00;57.36
45523;BME280;31254;51.680;5.394;2023-04-06T09:42:32;101573.84;;;10.93;56.94
45523;BME280;31254;51.680;5.394;2023-04-06T09:45:02;101616.25;;;11.28;57.44
45523;BME280;31254;51.680;5.394;2023-04-06T09:47:33;101621.78;;;11.38;57.17
45523;BME280;31254;51.680;5.394;2023-04-06T09:50:03;101614.75;;;11.36;57.60
45523;BME280;31254;51.680;5.394;2023-04-06T09:52:48;101601.03;;;11.26;57.60
45523;BME280;31254;51.680;5.394;2023-04-06T09:55:27;101607.25;;;11.38;58.06
45523;BME280;31254;51.680;5.394;2023-04-06T09:58:10;101598.72;;;11.21;58.17
45523;BME280;31254;51.680;5.394;2023-04-06T10:03:40;101618.63;;;11.12;58.88
45523;BME280;31254;51.680;5.394;2023-04-06T10:06:11;101615.50;;;10.95;59.57
45523;BME280;31254;51.680;5.394;2023-04-06T10:08:42;101620.03;;;10.85;60.05
45523;BME280;31254;51.680;5.394;2023-04-06T10:11:12;101620.97;;;10.74;60.58
45523;BME280;31254;51.680;5.394;2023-04-06T10:13:44;101612.00;;;10.63;61.02
45523;BME280;31254;51.680;5.394;2023-04-06T10:16:12;101610.63;;;10.57;61.36
45523;BME280;31254;51.680;5.394;2023-04-06T10:18:42;101627.25;;;10.54;61.68
45523;BME280;31254;51.680;5.394;2023-04-06T10:21:14;101628.53;;;10.50;62.39
45523;BME280;31254;51.680;5.394;2023-04-06T10:23:51;101620.13;;;10.41;62.41
45523;BME280;31254;51.680;5.394;2023-04-06T10:26:22;101614.06;;;10.38;63.00
45523;BME280;31254;51.680;5.394;2023-04-06T10:28:50;101610.34;;;10.28;63.08
45523;BME280;31254;51.680;5.394;2023-04-06T10:31:26;101633.50;;;10.45;63.48
45523;BME280;31254;51.680;5.394;2023-04-06T10:33:55;101638.69;;;10.48;63.37
45523;BME280;31254;51.680;5.394;2023-04-06T10:36:31;101609.22;;;10.41;63.39
45523;BME280;31254;51.680;5.394;2023-04-06T10:39:00;101607.88;;;10.36;63.51
45523;BME280;31254;51.680;5.394;2023-04-06T10:41:47;101630.03;;;10.42;63.45
45523;BME280;31254;51.680;5.394;2023-04-06T10:44:24;101634.03;;;10.38;63.89
45523;BME280;31254;51.680;5.394;2023-04-06T10:46:55;101628.59;;;10.38;64.45
45523;BME280;31254;51.680;5.394;2023-04-06T10:49:24;101633.03;;;10.39;64.41
45523;BME280;31254;51.680;5.394;2023-04-06T10:51:56;101609.25;;;10.30;64.85
45523;BME280;31254;51.680;5.394;2023-04-06T10:54:24;101628.97;;;10.34;65.00
45523;BME280;31254;51.680;5.394;2023-04-06T10:56:51;101627.31;;;10.31;65.14
45523;BME280;31254;51.680;5.394;2023-04-06T10:59:22;101596.88;;;10.15;65.77
45523;BME280;31254;51.680;5.394;2023-04-06T11:01:56;101617.47;;;10.19;65.68
45523;BME280;31254;51.680;5.394;2023-04-06T11:04:25;101593.81;;;10.08;66.09
45523;BME280;31254;51.680;5.394;2023-04-06T11:06:54;101613.97;;;10.17;66.35
45523;BME280;31254;51.680;5.394;2023-04-06T11:09:25;101607.19;;;10.11;66.99
45523;BME280;31254;51.680;5.394;2023-04-06T11:11:54;101604.47;;;10.11;66.41
45523;BME280;31254;51.680;5.394;2023-04-06T11:14:22;101598.25;;;10.20;66.91
45523;BME280;31254;51.680;5.394;2023-04-06T11:16:54;101596.72;;;10.28;66.62
45523;BME280;31254;51.680;5.394;2023-04-06T11:19:25;101598.34;;;10.30;66.69
45523;BME280;31254;51.680;5.394;2023-04-06T11:21:52;101597.16;;;10.44;66.82
45523;BME280;31254;51.680;5.394;2023-04-06T11:24:21;101598.28;;;10.53;67.07
45523;BME280;31254;51.680;5.394;2023-04-06T11:26:54;101594.00;;;10.60;66.92
45523;BME280;31254;51.680;5.394;2023-04-06T11:29:29;101590.75;;;10.66;66.86
45523;BME280;31254;51.680;5.394;2023-04-06T11:32:02;101580.63;;;10.78;66.62
45523;BME280;31254;51.680;5.394;2023-04-06T11:34:30;101579.97;;;10.86;66.86
45523;BME280;31254;51.680;5.394;2023-04-06T11:36:58;101575.75;;;10.82;66.65
45523;BME280;31254;51.680;5.394;2023-04-06T11:39:27;101573.16;;;10.80;67.29
45523;BME280;31254;51.680;5.394;2023-04-06T11:41:57;101569.56;;;10.79;67.57
45523;BME280;31254;51.680;5.394;2023-04-06T11:44:42;101562.25;;;10.80;67.49
45523;BME280;31254;51.680;5.394;2023-04-06T11:47:12;101560.28;;;10.82;67.58
45523;BME280;31254;51.680;5.394;2023-04-06T11:49:41;101554.81;;;10.82;67.45
45523;BME280;31254;51.680;5.394;2023-04-06T11:52:34;101552.41;;;10.89;67.25
45523;BME280;31254;51.680;5.394;2023-04-06T11:55:15;101497.31;;;10.74;67.09
45523;BME280;31254;51.680;5.394;2023-04-06T11:57:43;101547.09;;;11.18;67.18
45523;BME280;31254;51.680;5.394;2023-04-06T12:00:10;101546.09;;;11.29;67.20
45523;BME280;31254;51.680;5.394;2023-04-06T12:02:38;101540.72;;;11.39;66.71
45523;BME280;31254;51.680;5.394;2023-04-06T12:05:06;101525.91;;;11.51;66.22
45523;BME280;31254;51.680;5.394;2023-04-06T12:07:35;101544.38;;;11.68;66.34
45523;BME280;31254;51.680;5.394;2023-04-06T12:10:03;101496.44;;;11.55;66.59
45523;BME280;31254;51.680;5.394;2023-04-06T12:12:30;101535.63;;;11.75;66.39
45523;BME280;31254;51.680;5.394;2023-04-06T12:14:57;101537.75;;;11.71;66.68
45523;BME280;31254;51.680;5.394;2023-04-06T12:17:24;101533.00;;;11.63;67.08
45523;BME280;31254;51.680;5.394;2023-04-06T12:19:51;101533.41;;;11.49;67.50
45523;BME280;31254;51.680;5.394;2023-04-06T12:22:18;101528.19;;;11.36;68.02
45523;BME280;31254;51.680;5.394;2023-04-06T12:24:45;101534.63;;;11.35;67.87
45523;BME280;31254;51.680;5.394;2023-04-06T12:27:12;101538.06;;;11.27;68.15
45523;BME280;31254;51.680;5.394;2023-04-06T12:29:42;101526.38;;;11.15;68.85
45523;BME280;31254;51.680;5.394;2023-04-06T12:32:08;101536.03;;;11.20;68.84
45523;BME280;31254;51.680;5.394;2023-04-06T12:34:38;101532.50;;;11.08;69.02
45523;BME280;31254;51.680;5.394;2023-04-06T12:37:04;101534.06;;;11.01;69.19
45523;BME280;31254;51.680;5.394;2023-04-06T12:39:33;101531.88;;;10.94;70.14
45523;BME280;31254;51.680;5.394;2023-04-06T12:42:00;101530.44;;;10.90;70.04
45523;BME280;31254;51.680;5.394;2023-04-06T12:44:28;101525.06;;;10.79;70.58
45523;BME280;31254;51.680;5.394;2023-04-06T12:46:55;101523.84;;;10.72;70.46
45523;BME280;31254;51.680;5.394;2023-04-06T12:49:24;101510.47;;;10.69;70.55
45523;BME280;31254;51.680;5.394;2023-04-06T12:51:55;101521.50;;;10.67;71.24
45523;BME280;31254;51.680;5.394;2023-04-06T12:54:22;101528.59;;;10.70;71.10
45523;BME280;31254;51.680;5.394;2023-04-06T12:56:48;101517.06;;;10.66;70.91
45523;BME280;31254;51.680;5.394;2023-04-06T12:59:15;101522.53;;;10.66;71.34
45523;BME280;31254;51.680;5.394;2023-04-06T13:01:43;101507.81;;;10.57;71.47
45523;BME280;31254;51.680;5.394;2023-04-06T13:04:10;101511.56;;;10.56;71.85
45523;BME280;31254;51.680;5.394;2023-04-06T13:06:39;101497.41;;;10.41;72.01
45523;BME280;31254;51.680;5.394;2023-04-06T13:09:08;101506.44;;;10.42;72.28
45523;BME280;31254;51.680;5.394;2023-04-06T13:11:37;101505.72;;;10.40;72.77